High Ridge, Missouri
Current Conditions -  °F | °C
As of 7:54 PM on Sunday 25 Jan 2015 (Local Time) from KSUS Reporting Station
Overcast Overcast  
Wind Chill: 23°   Ceiling: 900
Heat Index: 33°   Visibility: 10mi
Dew Point: 30°   Wind: 15mph
Humidity: 89%   Direction: 350°N
Pressure: 29.96"   Gusts: 20mph
Location:  38.46°N, 90.53°W
Report Text: KSUS 260154Z 35013G17KT 10SM OVC009 01/M01 A2996 RMK AO2 UPB06E14SNE06 SLP149 P0000 T00061011 $
Loading
Personal Weather Stations






























Interactive Weather Map New forecast layout! Learn more

10-Day Weather Forecast

Advertisements
Track Severe Weather on mobile